sensor_id;sensor_type;location;lat;lon;timestamp;P1;durP1;ratioP1;P2;durP2;ratioP2
37355;SDS011;48747;50.250;18.848;2023-09-18T00:00:07;13.53;;;9.63;;
37355;SDS011;48747;50.250;18.848;2023-09-18T00:02:12;12.98;;;9.05;;
37355;SDS011;48747;50.250;18.848;2023-09-18T00:04:15;14.47;;;9.05;;
37355;SDS011;48747;50.250;18.848;2023-09-18T00:06:18;14.05;;;9.90;;
37355;SDS011;48747;50.250;18.848;2023-09-18T00:08:23;16.32;;;9.05;;
37355;SDS011;48747;50.250;18.848;2023-09-18T00:10:26;13.98;;;9.93;;
37355;SDS011;48747;50.250;18.848;2023-09-18T00:12:30;11.43;;;8.83;;
37355;SDS011;48747;50.250;18.848;2023-09-18T00:14:33;12.33;;;9.43;;
37355;SDS011;48747;50.250;18.848;2023-09-18T00:16:36;12.28;;;9.03;;
37355;SDS011;48747;50.250;18.848;2023-09-18T00:18:40;12.88;;;9.38;;
37355;SDS011;48747;50.250;18.848;2023-09-18T00:20:43;13.90;;;9.58;;
37355;SDS011;48747;50.250;18.848;2023-09-18T00:22:46;16.60;;;9.48;;
37355;SDS011;48747;50.250;18.848;2023-09-18T00:24:50;12.90;;;9.20;;
37355;SDS011;48747;50.250;18.848;2023-09-18T00:26:53;13.32;;;9.55;;
37355;SDS011;48747;50.250;18.848;2023-09-18T00:28:56;13.53;;;9.38;;
37355;SDS011;48747;50.250;18.848;2023-09-18T00:30:59;14.28;;;9.88;;
37355;SDS011;48747;50.250;18.848;2023-09-18T00:33:02;17.12;;;9.88;;
37355;SDS011;48747;50.250;18.848;2023-09-18T00:35:05;15.25;;;9.25;;
37355;SDS011;48747;50.250;18.848;2023-09-18T00:37:09;14.65;;;9.85;;
37355;SDS011;48747;50.250;18.848;2023-09-18T00:39:13;13.83;;;9.18;;
37355;SDS011;48747;50.250;18.848;2023-09-18T00:41:16;14.07;;;10.05;;
37355;SDS011;48747;50.250;18.848;2023-09-18T00:43:19;14.23;;;9.25;;
37355;SDS011;48747;50.250;18.848;2023-09-18T00:45:22;15.30;;;9.75;;
37355;SDS011;48747;50.250;18.848;2023-09-18T00:47:25;13.30;;;9.43;;
37355;SDS011;48747;50.250;18.848;2023-09-18T00:49:29;12.47;;;9.28;;
37355;SDS011;48747;50.250;18.848;2023-09-18T00:51:32;11.80;;;9.05;;
37355;SDS011;48747;50.250;18.848;2023-09-18T00:53:35;11.55;;;9.05;;
37355;SDS011;48747;50.250;18.848;2023-09-18T00:55:40;13.78;;;9.35;;
37355;SDS011;48747;50.250;18.848;2023-09-18T00:57:43;16.07;;;10.00;;
37355;SDS011;48747;50.250;18.848;2023-09-18T00:59:47;13.25;;;9.25;;
37355;SDS011;48747;50.250;18.848;2023-09-18T01:01:50;13.13;;;9.35;;
37355;SDS011;48747;50.250;18.848;2023-09-18T01:03:54;12.90;;;9.20;;
37355;SDS011;48747;50.250;18.848;2023-09-18T01:05:58;14.53;;;9.10;;
37355;SDS011;48747;50.250;18.848;2023-09-18T01:08:01;13.25;;;9.10;;
37355;SDS011;48747;50.250;18.848;2023-09-18T01:10:07;13.30;;;9.38;;
37355;SDS011;48747;50.250;18.848;2023-09-18T01:14:42;14.40;;;8.95;;
37355;SDS011;48747;50.250;18.848;2023-09-18T01:16:54;14.00;;;9.38;;
37355;SDS011;48747;50.250;18.848;2023-09-18T01:19:05;17.10;;;9.20;;
37355;SDS011;48747;50.250;18.848;2023-09-18T01:21:08;12.37;;;8.50;;
37355;SDS011;48747;50.250;18.848;2023-09-18T01:23:11;12.85;;;8.70;;
37355;SDS011;48747;50.250;18.848;2023-09-18T01:25:14;13.00;;;9.05;;
37355;SDS011;48747;50.250;18.848;2023-09-18T01:27:17;10.50;;;8.73;;
37355;SDS011;48747;50.250;18.848;2023-09-18T01:29:21;12.75;;;8.65;;
37355;SDS011;48747;50.250;18.848;2023-09-18T01:31:24;12.43;;;8.85;;
37355;SDS011;48747;50.250;18.848;2023-09-18T01:33:27;11.88;;;8.63;;
37355;SDS011;48747;50.250;18.848;2023-09-18T01:35:31;12.93;;;8.83;;
37355;SDS011;48747;50.250;18.848;2023-09-18T01:37:36;14.75;;;9.20;;
37355;SDS011;48747;50.250;18.848;2023-09-18T01:39:41;12.25;;;8.28;;
37355;SDS011;48747;50.250;18.848;2023-09-18T01:41:45;13.90;;;9.13;;
37355;SDS011;48747;50.250;18.848;2023-09-18T01:43:49;15.78;;;9.28;;
37355;SDS011;48747;50.250;18.848;2023-09-18T01:45:52;12.43;;;8.43;;
37355;SDS011;48747;50.250;18.848;2023-09-18T01:47:56;13.62;;;9.05;;
37355;SDS011;48747;50.250;18.848;2023-09-18T01:50:02;13.00;;;8.75;;
37355;SDS011;48747;50.250;18.848;2023-09-18T01:52:07;12.33;;;8.50;;
37355;SDS011;48747;50.250;18.848;2023-09-18T01:54:11;13.00;;;9.38;;
37355;SDS011;48747;50.250;18.848;2023-09-18T01:56:14;13.85;;;9.23;;
37355;SDS011;48747;50.250;18.848;2023-09-18T01:58:17;11.40;;;8.20;;
37355;SDS011;48747;50.250;18.848;2023-09-18T02:00:20;12.28;;;8.58;;
37355;SDS011;48747;50.250;18.848;2023-09-18T02:02:23;10.95;;;8.70;;
37355;SDS011;48747;50.250;18.848;2023-09-18T02:04:26;12.35;;;8.80;;
37355;SDS011;48747;50.250;18.848;2023-09-18T02:06:29;11.65;;;8.45;;
37355;SDS011;48747;50.250;18.848;2023-09-18T02:08:32;11.83;;;8.55;;
37355;SDS011;48747;50.250;18.848;2023-09-18T02:10:36;10.68;;;8.20;;
37355;SDS011;48747;50.250;18.848;2023-09-18T02:12:39;10.45;;;8.63;;
37355;SDS011;48747;50.250;18.848;2023-09-18T02:14:42;11.70;;;8.75;;
37355;SDS011;48747;50.250;18.848;2023-09-18T02:16:46;12.80;;;8.93;;
37355;SDS011;48747;50.250;18.848;2023-09-18T02:18:50;14.55;;;9.15;;
37355;SDS011;48747;50.250;18.848;2023-09-18T02:20:55;11.03;;;8.75;;
37355;SDS011;48747;50.250;18.848;2023-09-18T02:22:58;12.58;;;8.90;;
37355;SDS011;48747;50.250;18.848;2023-09-18T02:25:01;13.32;;;9.25;;
37355;SDS011;48747;50.250;18.848;2023-09-18T02:27:04;12.55;;;8.48;;
37355;SDS011;48747;50.250;18.848;2023-09-18T02:29:08;14.00;;;8.85;;
37355;SDS011;48747;50.250;18.848;2023-09-18T02:31:15;11.08;;;8.13;;
37355;SDS011;48747;50.250;18.848;2023-09-18T02:33:18;13.53;;;8.45;;
37355;SDS011;48747;50.250;18.848;2023-09-18T02:35:21;16.00;;;8.70;;
37355;SDS011;48747;50.250;18.848;2023-09-18T02:37:24;13.10;;;8.73;;
37355;SDS011;48747;50.250;18.848;2023-09-18T02:39:27;14.20;;;9.03;;
37355;SDS011;48747;50.250;18.848;2023-09-18T02:41:30;12.53;;;8.68;;
37355;SDS011;48747;50.250;18.848;2023-09-18T02:43:33;12.43;;;9.30;;
37355;SDS011;48747;50.250;18.848;2023-09-18T02:45:39;12.93;;;8.75;;
37355;SDS011;48747;50.250;18.848;2023-09-18T02:47:42;12.60;;;8.75;;
37355;SDS011;48747;50.250;18.848;2023-09-18T02:49:45;12.43;;;9.00;;
37355;SDS011;48747;50.250;18.848;2023-09-18T02:51:48;11.05;;;8.95;;
37355;SDS011;48747;50.250;18.848;2023-09-18T02:53:51;13.43;;;9.20;;
37355;SDS011;48747;50.250;18.848;2023-09-18T02:55:55;10.72;;;8.93;;
37355;SDS011;48747;50.250;18.848;2023-09-18T02:57:58;11.78;;;9.03;;
37355;SDS011;48747;50.250;18.848;2023-09-18T03:00:01;13.98;;;9.20;;
37355;SDS011;48747;50.250;18.848;2023-09-18T03:02:05;13.15;;;9.35;;
37355;SDS011;48747;50.250;18.848;2023-09-18T03:04:08;10.85;;;8.85;;
37355;SDS011;48747;50.250;18.848;2023-09-18T03:06:11;12.07;;;9.50;;
37355;SDS011;48747;50.250;18.848;2023-09-18T03:08:14;12.80;;;9.08;;
37355;SDS011;48747;50.250;18.848;2023-09-18T03:10:18;11.78;;;9.43;;
37355;SDS011;48747;50.250;18.848;2023-09-18T03:12:21;11.57;;;8.83;;
37355;SDS011;48747;50.250;18.848;2023-09-18T03:14:24;12.60;;;9.75;;
37355;SDS011;48747;50.250;18.848;2023-09-18T03:16:27;12.58;;;9.53;;
37355;SDS011;48747;50.250;18.848;2023-09-18T03:18:31;14.98;;;10.08;;
37355;SDS011;48747;50.250;18.848;2023-09-18T03:20:34;12.00;;;9.83;;
37355;SDS011;48747;50.250;18.848;2023-09-18T03:22:37;12.13;;;9.50;;
37355;SDS011;48747;50.250;18.848;2023-09-18T03:24:40;12.33;;;9.85;;
37355;SDS011;48747;50.250;18.848;2023-09-18T03:26:43;13.58;;;9.63;;
37355;SDS011;48747;50.250;18.848;2023-09-18T03:28:47;14.58;;;9.80;;
37355;SDS011;48747;50.250;18.848;2023-09-18T03:30:50;14.28;;;9.85;;
37355;SDS011;48747;50.250;18.848;2023-09-18T03:32:53;11.65;;;9.20;;
37355;SDS011;48747;50.250;18.848;2023-09-18T03:34:56;12.63;;;9.95;;
37355;SDS011;48747;50.250;18.848;2023-09-18T03:36:59;15.28;;;9.80;;
37355;SDS011;48747;50.250;18.848;2023-09-18T03:39:02;12.30;;;10.03;;
37355;SDS011;48747;50.250;18.848;2023-09-18T03:41:06;13.28;;;10.35;;
37355;SDS011;48747;50.250;18.848;2023-09-18T03:43:09;10.82;;;9.40;;
37355;SDS011;48747;50.250;18.848;2023-09-18T03:45:13;12.70;;;10.13;;
37355;SDS011;48747;50.250;18.848;2023-09-18T03:47:16;13.83;;;10.80;;
37355;SDS011;48747;50.250;18.848;2023-09-18T03:49:19;14.85;;;10.43;;
37355;SDS011;48747;50.250;18.848;2023-09-18T03:51:22;14.30;;;10.55;;
37355;SDS011;48747;50.250;18.848;2023-09-18T03:53:25;13.45;;;10.38;;
37355;SDS011;48747;50.250;18.848;2023-09-18T03:55:28;14.85;;;10.00;;
37355;SDS011;48747;50.250;18.848;2023-09-18T03:57:31;14.38;;;10.95;;
37355;SDS011;48747;50.250;18.848;2023-09-18T03:59:35;16.35;;;11.00;;
37355;SDS011;48747;50.250;18.848;2023-09-18T04:01:38;15.18;;;11.30;;
37355;SDS011;48747;50.250;18.848;2023-09-18T04:03:41;16.17;;;10.15;;
37355;SDS011;48747;50.250;18.848;2023-09-18T04:05:44;14.38;;;10.50;;
37355;SDS011;48747;50.250;18.848;2023-09-18T04:07:47;13.50;;;10.90;;
37355;SDS011;48747;50.250;18.848;2023-09-18T04:09:50;12.98;;;10.55;;
37355;SDS011;48747;50.250;18.848;2023-09-18T04:11:53;13.72;;;11.10;;
37355;SDS011;48747;50.250;18.848;2023-09-18T04:13:56;15.65;;;11.30;;
37355;SDS011;48747;50.250;18.848;2023-09-18T04:16:00;14.38;;;11.60;;
37355;SDS011;48747;50.250;18.848;2023-09-18T04:18:05;16.80;;;11.95;;
37355;SDS011;48747;50.250;18.848;2023-09-18T04:20:08;18.67;;;12.03;;
37355;SDS011;48747;50.250;18.848;2023-09-18T04:22:12;14.60;;;12.07;;
37355;SDS011;48747;50.250;18.848;2023-09-18T04:24:15;15.10;;;12.25;;
37355;SDS011;48747;50.250;18.848;2023-09-18T04:26:18;15.03;;;12.40;;
37355;SDS011;48747;50.250;18.848;2023-09-18T04:28:21;14.93;;;12.03;;
37355;SDS011;48747;50.250;18.848;2023-09-18T04:30:25;18.85;;;13.25;;
37355;SDS011;48747;50.250;18.848;2023-09-18T04:32:28;18.73;;;12.30;;
37355;SDS011;48747;50.250;18.848;2023-09-18T04:34:32;16.27;;;12.43;;
37355;SDS011;48747;50.250;18.848;2023-09-18T04:36:36;15.83;;;12.13;;
37355;SDS011;48747;50.250;18.848;2023-09-18T04:38:39;18.10;;;12.98;;
37355;SDS011;48747;50.250;18.848;2023-09-18T04:40:42;17.17;;;12.75;;
37355;SDS011;48747;50.250;18.848;2023-09-18T04:42:46;16.05;;;12.82;;
37355;SDS011;48747;50.250;18.848;2023-09-18T04:44:49;20.17;;;12.80;;
37355;SDS011;48747;50.250;18.848;2023-09-18T04:46:52;16.50;;;12.55;;
37355;SDS011;48747;50.250;18.848;2023-09-18T04:48:55;13.90;;;11.60;;
37355;SDS011;48747;50.250;18.848;2023-09-18T04:50:58;18.70;;;13.28;;
37355;SDS011;48747;50.250;18.848;2023-09-18T04:53:02;15.00;;;12.88;;
37355;SDS011;48747;50.250;18.848;2023-09-18T04:55:06;16.05;;;12.95;;
37355;SDS011;48747;50.250;18.848;2023-09-18T04:57:09;17.67;;;12.65;;
37355;SDS011;48747;50.250;18.848;2023-09-18T04:59:13;18.10;;;12.65;;
37355;SDS011;48747;50.250;18.848;2023-09-18T05:01:16;19.95;;;12.33;;
37355;SDS011;48747;50.250;18.848;2023-09-18T05:03:20;16.80;;;12.78;;
37355;SDS011;48747;50.250;18.848;2023-09-18T05:05:23;14.98;;;12.25;;
37355;SDS011;48747;50.250;18.848;2023-09-18T05:07:26;16.17;;;12.95;;
37355;SDS011;48747;50.250;18.848;2023-09-18T05:09:29;15.72;;;12.60;;
37355;SDS011;48747;50.250;18.848;2023-09-18T05:11:33;14.07;;;12.13;;
37355;SDS011;48747;50.250;18.848;2023-09-18T05:13:37;14.87;;;12.20;;
37355;SDS011;48747;50.250;18.848;2023-09-18T05:15:40;17.87;;;13.80;;
37355;SDS011;48747;50.250;18.848;2023-09-18T05:17:44;19.80;;;13.35;;
37355;SDS011;48747;50.250;18.848;2023-09-18T05:19:49;14.58;;;12.07;;
37355;SDS011;48747;50.250;18.848;2023-09-18T05:21:52;14.95;;;12.05;;
37355;SDS011;48747;50.250;18.848;2023-09-18T05:23:55;14.60;;;12.60;;
37355;SDS011;48747;50.250;18.848;2023-09-18T05:25:58;16.75;;;12.60;;
37355;SDS011;48747;50.250;18.848;2023-09-18T05:28:01;15.23;;;12.10;;
37355;SDS011;48747;50.250;18.848;2023-09-18T05:30:07;17.55;;;12.43;;
37355;SDS011;48747;50.250;18.848;2023-09-18T05:32:10;16.15;;;11.90;;
37355;SDS011;48747;50.250;18.848;2023-09-18T05:34:13;15.63;;;12.23;;
37355;SDS011;48747;50.250;18.848;2023-09-18T05:36:16;15.55;;;12.33;;
37355;SDS011;48747;50.250;18.848;2023-09-18T05:38:19;14.33;;;12.05;;
37355;SDS011;48747;50.250;18.848;2023-09-18T05:40:22;15.35;;;11.95;;
37355;SDS011;48747;50.250;18.848;2023-09-18T05:42:28;15.58;;;12.03;;
37355;SDS011;48747;50.250;18.848;2023-09-18T05:44:31;15.80;;;12.23;;
37355;SDS011;48747;50.250;18.848;2023-09-18T05:46:34;15.03;;;12.28;;
37355;SDS011;48747;50.250;18.848;2023-09-18T05:48:38;16.55;;;13.38;;
37355;SDS011;48747;50.250;18.848;2023-09-18T05:50:41;16.82;;;12.45;;
37355;SDS011;48747;50.250;18.848;2023-09-18T05:52:45;16.82;;;12.37;;
37355;SDS011;48747;50.250;18.848;2023-09-18T05:54:53;15.13;;;12.88;;
37355;SDS011;48747;50.250;18.848;2023-09-18T05:56:56;18.00;;;12.20;;
37355;SDS011;48747;50.250;18.848;2023-09-18T05:58:59;17.07;;;11.97;;
37355;SDS011;48747;50.250;18.848;2023-09-18T06:01:02;15.70;;;12.15;;
37355;SDS011;48747;50.250;18.848;2023-09-18T06:03:05;17.15;;;12.33;;
37355;SDS011;48747;50.250;18.848;2023-09-18T06:05:08;15.83;;;12.00;;
37355;SDS011;48747;50.250;18.848;2023-09-18T06:07:13;17.57;;;12.03;;
37355;SDS011;48747;50.250;18.848;2023-09-18T06:09:16;14.28;;;12.35;;
37355;SDS011;48747;50.250;18.848;2023-09-18T06:11:19;15.78;;;12.63;;
37355;SDS011;48747;50.250;18.848;2023-09-18T06:13:24;15.63;;;11.95;;
37355;SDS011;48747;50.250;18.848;2023-09-18T06:15:27;16.37;;;12.50;;
37355;SDS011;48747;50.250;18.848;2023-09-18T06:17:30;13.53;;;10.90;;
37355;SDS011;48747;50.250;18.848;2023-09-18T06:19:33;14.35;;;11.33;;
37355;SDS011;48747;50.250;18.848;2023-09-18T06:21:36;15.78;;;11.83;;
37355;SDS011;48747;50.250;18.848;2023-09-18T06:23:39;14.25;;;11.70;;
37355;SDS011;48747;50.250;18.848;2023-09-18T06:25:42;17.45;;;11.65;;
37355;SDS011;48747;50.250;18.848;2023-09-18T06:27:45;15.45;;;11.25;;
37355;SDS011;48747;50.250;18.848;2023-09-18T06:29:48;14.50;;;11.40;;
37355;SDS011;48747;50.250;18.848;2023-09-18T06:31:52;18.32;;;12.43;;
37355;SDS011;48747;50.250;18.848;2023-09-18T06:34:00;14.75;;;11.60;;
37355;SDS011;48747;50.250;18.848;2023-09-18T06:35:59;12.88;;;11.40;;
37355;SDS011;48747;50.250;18.848;2023-09-18T06:38:03;12.80;;;11.10;;
37355;SDS011;48747;50.250;18.848;2023-09-18T06:40:08;14.50;;;11.60;;
37355;SDS011;48747;50.250;18.848;2023-09-18T06:42:11;16.80;;;12.28;;
37355;SDS011;48747;50.250;18.848;2023-09-18T06:44:14;15.03;;;11.93;;
37355;SDS011;48747;50.250;18.848;2023-09-18T06:46:17;16.52;;;11.40;;
37355;SDS011;48747;50.250;18.848;2023-09-18T06:48:26;17.60;;;11.40;;
37355;SDS011;48747;50.250;18.848;2023-09-18T06:50:31;14.65;;;11.57;;
37355;SDS011;48747;50.250;18.848;2023-09-18T06:52:34;14.18;;;11.03;;
37355;SDS011;48747;50.250;18.848;2023-09-18T06:54:37;13.18;;;11.22;;
37355;SDS011;48747;50.250;18.848;2023-09-18T06:56:40;17.70;;;11.63;;
37355;SDS011;48747;50.250;18.848;2023-09-18T06:58:45;13.53;;;11.55;;
37355;SDS011;48747;50.250;18.848;2023-09-18T07:00:49;14.90;;;11.88;;
37355;SDS011;48747;50.250;18.848;2023-09-18T07:02:52;16.73;;;11.48;;
37355;SDS011;48747;50.250;18.848;2023-09-18T07:04:55;17.32;;;11.68;;
37355;SDS011;48747;50.250;18.848;2023-09-18T07:06:58;12.88;;;10.90;;
37355;SDS011;48747;50.250;18.848;2023-09-18T07:09:01;14.63;;;11.33;;
37355;SDS011;48747;50.250;18.848;2023-09-18T07:11:06;15.88;;;11.50;;
37355;SDS011;48747;50.250;18.848;2023-09-18T07:13:09;14.63;;;12.10;;
37355;SDS011;48747;50.250;18.848;2023-09-18T07:15:12;15.40;;;11.03;;
37355;SDS011;48747;50.250;18.848;2023-09-18T07:17:15;15.10;;;10.93;;
37355;SDS011;48747;50.250;18.848;2023-09-18T07:19:19;14.90;;;11.65;;
37355;SDS011;48747;50.250;18.848;2023-09-18T07:21:22;13.18;;;11.50;;
37355;SDS011;48747;50.250;18.848;2023-09-18T07:23:25;15.45;;;11.88;;
37355;SDS011;48747;50.250;18.848;2023-09-18T07:25:28;13.40;;;11.18;;
37355;SDS011;48747;50.250;18.848;2023-09-18T07:27:31;12.93;;;10.95;;
37355;SDS011;48747;50.250;18.848;2023-09-18T07:29:34;14.03;;;11.40;;
37355;SDS011;48747;50.250;18.848;2023-09-18T07:31:37;16.27;;;11.78;;
37355;SDS011;48747;50.250;18.848;2023-09-18T07:33:41;13.30;;;11.08;;
37355;SDS011;48747;50.250;18.848;2023-09-18T07:35:47;17.50;;;11.55;;
37355;SDS011;48747;50.250;18.848;2023-09-18T07:37:53;12.50;;;11.20;;
37355;SDS011;48747;50.250;18.848;2023-09-18T07:39:56;16.23;;;10.58;;
37355;SDS011;48747;50.250;18.848;2023-09-18T07:41:59;14.00;;;11.40;;
37355;SDS011;48747;50.250;18.848;2023-09-18T07:44:02;18.77;;;11.48;;
37355;SDS011;48747;50.250;18.848;2023-09-18T07:46:05;16.05;;;10.72;;
37355;SDS011;48747;50.250;18.848;2023-09-18T07:48:08;15.00;;;11.28;;
37355;SDS011;48747;50.250;18.848;2023-09-18T07:50:12;14.03;;;11.00;;
37355;SDS011;48747;50.250;18.848;2023-09-18T07:52:15;13.08;;;11.70;;
37355;SDS011;48747;50.250;18.848;2023-09-18T07:54:19;14.68;;;11.08;;
37355;SDS011;48747;50.250;18.848;2023-09-18T07:56:26;18.27;;;11.25;;
37355;SDS011;48747;50.250;18.848;2023-09-18T07:58:31;11.95;;;10.58;;
37355;SDS011;48747;50.250;18.848;2023-09-18T08:00:34;15.55;;;10.88;;
37355;SDS011;48747;50.250;18.848;2023-09-18T08:02:40;17.80;;;11.90;;
37355;SDS011;48747;50.250;18.848;2023-09-18T08:04:43;16.65;;;11.93;;
37355;SDS011;48747;50.250;18.848;2023-09-18T08:06:46;15.38;;;11.12;;
37355;SDS011;48747;50.250;18.848;2023-09-18T08:08:49;16.15;;;11.73;;
37355;SDS011;48747;50.250;18.848;2023-09-18T08:10:53;12.95;;;11.53;;
37355;SDS011;48747;50.250;18.848;2023-09-18T08:12:56;17.55;;;11.88;;
37355;SDS011;48747;50.250;18.848;2023-09-18T08:14:59;16.90;;;11.33;;
37355;SDS011;48747;50.250;18.848;2023-09-18T08:17:11;20.23;;;12.05;;
37355;SDS011;48747;50.250;18.848;2023-09-18T08:19:17;18.32;;;11.57;;
37355;SDS011;48747;50.250;18.848;2023-09-18T08:21:21;18.90;;;11.78;;
37355;SDS011;48747;50.250;18.848;2023-09-18T08:23:25;13.98;;;11.68;;
37355;SDS011;48747;50.250;18.848;2023-09-18T08:25:32;15.20;;;11.53;;
37355;SDS011;48747;50.250;18.848;2023-09-18T08:27:39;14.18;;;11.95;;
37355;SDS011;48747;50.250;18.848;2023-09-18T08:31:49;13.38;;;11.93;;
37355;SDS011;48747;50.250;18.848;2023-09-18T08:33:52;16.67;;;12.15;;
37355;SDS011;48747;50.250;18.848;2023-09-18T08:35:55;15.40;;;11.68;;
37355;SDS011;48747;50.250;18.848;2023-09-18T08:37:58;18.10;;;12.07;;
37355;SDS011;48747;50.250;18.848;2023-09-18T08:40:02;14.65;;;11.48;;
37355;SDS011;48747;50.250;18.848;2023-09-18T08:42:09;14.15;;;10.95;;
37355;SDS011;48747;50.250;18.848;2023-09-18T08:44:14;14.23;;;11.55;;
37355;SDS011;48747;50.250;18.848;2023-09-18T08:46:17;15.45;;;11.80;;
37355;SDS011;48747;50.250;18.848;2023-09-18T08:48:24;20.30;;;12.33;;
37355;SDS011;48747;50.250;18.848;2023-09-18T08:50:29;15.75;;;11.28;;
37355;SDS011;48747;50.250;18.848;2023-09-18T08:52:33;15.78;;;11.60;;
37355;SDS011;48747;50.250;18.848;2023-09-18T08:54:40;15.68;;;11.33;;
37355;SDS011;48747;50.250;18.848;2023-09-18T08:56:42;13.45;;;12.03;;
37355;SDS011;48747;50.250;18.848;2023-09-18T08:58:45;13.68;;;11.20;;
37355;SDS011;48747;50.250;18.848;2023-09-18T09:00:49;13.32;;;11.85;;
37355;SDS011;48747;50.250;18.848;2023-09-18T09:02:56;14.30;;;12.35;;
37355;SDS011;48747;50.250;18.848;2023-09-18T09:04:58;14.75;;;11.48;;
37355;SDS011;48747;50.250;18.848;2023-09-18T09:07:03;13.58;;;11.50;;
37355;SDS011;48747;50.250;18.848;2023-09-18T09:09:06;13.60;;;11.80;;
37355;SDS011;48747;50.250;18.848;2023-09-18T09:11:09;19.55;;;12.28;;
37355;SDS011;48747;50.250;18.848;2023-09-18T09:13:14;15.40;;;11.75;;
37355;SDS011;48747;50.250;18.848;2023-09-18T09:15:17;14.50;;;11.63;;
37355;SDS011;48747;50.250;18.848;2023-09-18T09:17:22;17.23;;;11.05;;
37355;SDS011;48747;50.250;18.848;2023-09-18T09:19:33;15.90;;;12.03;;
37355;SDS011;48747;50.250;18.848;2023-09-18T09:21:42;16.05;;;12.00;;
37355;SDS011;48747;50.250;18.848;2023-09-18T09:26:16;14.90;;;11.85;;
37355;SDS011;48747;50.250;18.848;2023-09-18T09:28:11;15.10;;;11.40;;
37355;SDS011;48747;50.250;18.848;2023-09-18T09:30:11;17.20;;;11.80;;
37355;SDS011;48747;50.250;18.848;2023-09-18T09:32:16;17.35;;;11.22;;
37355;SDS011;48747;50.250;18.848;2023-09-18T09:34:25;15.38;;;11.78;;
37355;SDS011;48747;50.250;18.848;2023-09-18T09:36:32;15.28;;;11.35;;
37355;SDS011;48747;50.250;18.848;2023-09-18T09:38:35;12.53;;;10.85;;
37355;SDS011;48747;50.250;18.848;2023-09-18T09:40:38;12.80;;;11.50;;
37355;SDS011;48747;50.250;18.848;2023-09-18T09:42:50;14.93;;;11.93;;
37355;SDS011;48747;50.250;18.848;2023-09-18T09:45:04;16.32;;;11.93;;
37355;SDS011;48747;50.250;18.848;2023-09-18T09:47:09;17.57;;;11.18;;
37355;SDS011;48747;50.250;18.848;2023-09-18T09:49:13;15.95;;;11.65;;
37355;SDS011;48747;50.250;18.848;2023-09-18T09:51:18;14.78;;;11.30;;
37355;SDS011;48747;50.250;18.848;2023-09-18T09:55:53;17.95;;;11.75;;
37355;SDS011;48747;50.250;18.848;2023-09-18T09:58:00;13.07;;;10.53;;
37355;SDS011;48747;50.250;18.848;2023-09-18T10:00:07;12.68;;;10.50;;
37355;SDS011;48747;50.250;18.848;2023-09-18T10:02:13;13.95;;;10.78;;
37355;SDS011;48747;50.250;18.848;2023-09-18T10:04:19;14.43;;;10.45;;
37355;SDS011;48747;50.250;18.848;2023-09-18T10:06:23;15.13;;;10.55;;
37355;SDS011;48747;50.250;18.848;2023-09-18T10:08:33;15.05;;;10.80;;
37355;SDS011;48747;50.250;18.848;2023-09-18T10:10:39;14.78;;;10.43;;
37355;SDS011;48747;50.250;18.848;2023-09-18T10:12:49;11.70;;;10.32;;
37355;SDS011;48747;50.250;18.848;2023-09-18T10:14:58;16.75;;;10.85;;
37355;SDS011;48747;50.250;18.848;2023-09-18T10:17:10;12.23;;;10.53;;
37355;SDS011;48747;50.250;18.848;2023-09-18T10:19:21;13.32;;;10.30;;
37355;SDS011;48747;50.250;18.848;2023-09-18T10:21:29;11.10;;;9.88;;
37355;SDS011;48747;50.250;18.848;2023-09-18T10:23:41;11.45;;;10.08;;
37355;SDS011;48747;50.250;18.848;2023-09-18T10:25:42;15.25;;;9.85;;
37355;SDS011;48747;50.250;18.848;2023-09-18T10:27:49;14.30;;;9.43;;
37355;SDS011;48747;50.250;18.848;2023-09-18T10:29:54;13.48;;;10.65;;
37355;SDS011;48747;50.250;18.848;2023-09-18T10:31:59;12.65;;;9.80;;
37355;SDS011;48747;50.250;18.848;2023-09-18T10:34:06;14.93;;;10.08;;
37355;SDS011;48747;50.250;18.848;2023-09-18T10:36:10;13.45;;;10.08;;
37355;SDS011;48747;50.250;18.848;2023-09-18T10:38:15;12.75;;;9.90;;
37355;SDS011;48747;50.250;18.848;2023-09-18T10:40:19;12.30;;;9.53;;
37355;SDS011;48747;50.250;18.848;2023-09-18T10:42:23;10.45;;;9.45;;
37355;SDS011;48747;50.250;18.848;2023-09-18T10:44:28;11.15;;;9.55;;
37355;SDS011;48747;50.250;18.848;2023-09-18T10:46:35;13.55;;;9.83;;
37355;SDS011;48747;50.250;18.848;2023-09-18T10:48:39;14.38;;;9.83;;
37355;SDS011;48747;50.250;18.848;2023-09-18T10:50:44;13.20;;;10.08;;
37355;SDS011;48747;50.250;18.848;2023-09-18T10:52:53;13.50;;;9.90;;
37355;SDS011;48747;50.250;18.848;2023-09-18T10:54:52;10.88;;;9.70;;
37355;SDS011;48747;50.250;18.848;2023-09-18T10:56:57;14.03;;;9.73;;
37355;SDS011;48747;50.250;18.848;2023-09-18T10:59:02;10.78;;;9.68;;
37355;SDS011;48747;50.250;18.848;2023-09-18T11:01:11;12.18;;;10.20;;
37355;SDS011;48747;50.250;18.848;2023-09-18T11:03:16;14.70;;;10.08;;
37355;SDS011;48747;50.250;18.848;2023-09-18T11:05:30;13.08;;;9.45;;
37355;SDS011;48747;50.250;18.848;2023-09-18T11:07:35;10.75;;;9.23;;
37355;SDS011;48747;50.250;18.848;2023-09-18T11:09:42;10.48;;;9.30;;
37355;SDS011;48747;50.250;18.848;2023-09-18T11:11:46;12.20;;;9.80;;
37355;SDS011;48747;50.250;18.848;2023-09-18T11:13:56;11.78;;;9.50;;
37355;SDS011;48747;50.250;18.848;2023-09-18T11:16:03;9.93;;;8.78;;
37355;SDS011;48747;50.250;18.848;2023-09-18T11:18:17;10.35;;;9.25;;
37355;SDS011;48747;50.250;18.848;2023-09-18T11:20:32;9.55;;;8.48;;
37355;SDS011;48747;50.250;18.848;2023-09-18T11:22:35;10.60;;;7.90;;
37355;SDS011;48747;50.250;18.848;2023-09-18T11:24:38;9.35;;;8.30;;
37355;SDS011;48747;50.250;18.848;2023-09-18T11:26:42;9.23;;;8.20;;
37355;SDS011;48747;50.250;18.848;2023-09-18T11:28:47;9.33;;;8.33;;
37355;SDS011;48747;50.250;18.848;2023-09-18T11:30:55;14.68;;;9.15;;
37355;SDS011;48747;50.250;18.848;2023-09-18T11:33:01;10.55;;;8.40;;
37355;SDS011;48747;50.250;18.848;2023-09-18T11:35:07;12.13;;;7.95;;
37355;SDS011;48747;50.250;18.848;2023-09-18T11:37:20;11.60;;;8.75;;
37355;SDS011;48747;50.250;18.848;2023-09-18T11:39:37;13.80;;;8.43;;
37355;SDS011;48747;50.250;18.848;2023-09-18T11:41:41;9.78;;;7.80;;
37355;SDS011;48747;50.250;18.848;2023-09-18T11:43:46;8.78;;;7.87;;
37355;SDS011;48747;50.250;18.848;2023-09-18T11:45:49;9.08;;;7.97;;
37355;SDS011;48747;50.250;18.848;2023-09-18T11:47:53;9.00;;;8.10;;
37355;SDS011;48747;50.250;18.848;2023-09-18T11:49:58;10.35;;;8.10;;
37355;SDS011;48747;50.250;18.848;2023-09-18T11:52:01;10.98;;;8.73;;
37355;SDS011;48747;50.250;18.848;2023-09-18T11:54:05;13.05;;;8.68;;
37355;SDS011;48747;50.250;18.848;2023-09-18T11:56:15;8.75;;;7.67;;
37355;SDS011;48747;50.250;18.848;2023-09-18T11:58:15;8.95;;;7.40;;
37355;SDS011;48747;50.250;18.848;2023-09-18T12:00:20;8.70;;;7.53;;
37355;SDS011;48747;50.250;18.848;2023-09-18T12:02:28;10.05;;;7.85;;
37355;SDS011;48747;50.250;18.848;2023-09-18T12:04:34;11.68;;;7.83;;
37355;SDS011;48747;50.250;18.848;2023-09-18T12:06:41;9.58;;;7.78;;
37355;SDS011;48747;50.250;18.848;2023-09-18T12:08:44;10.63;;;7.60;;